createdAt,value
2022-10-08T00:01:24.149Z,100217.38
2022-10-08T00:03:54.750Z,100229.16
2022-10-08T00:06:24.043Z,100223.19
2022-10-08T00:08:54.923Z,100222.06
2022-10-08T00:11:26.841Z,100229.66
2022-10-08T00:13:56.046Z,100231.34
2022-10-08T00:16:26.339Z,100236.63
2022-10-08T00:18:57.217Z,100253.78
2022-10-08T00:21:28.111Z,100255.56
2022-10-08T00:23:56.004Z,100245.03
2022-10-08T00:26:27.440Z,100252.94
2022-10-08T00:28:57.329Z,100235.50
2022-10-08T00:31:28.486Z,100235.34
2022-10-08T00:33:58.370Z,100228.44
2022-10-08T00:36:28.621Z,100238.13
2022-10-08T00:38:57.575Z,100234.66
2022-10-08T00:41:29.150Z,100227.59
2022-10-08T00:43:58.987Z,100234.50
2022-10-08T00:46:30.502Z,100233.56
2022-10-08T00:49:03.544Z,100234.38
2022-10-08T00:51:33.488Z,100230.78
2022-10-08T00:54:02.876Z,100225.50
2022-10-08T00:56:34.635Z,100227.31
2022-10-08T00:59:03.247Z,100232.72
2022-10-08T01:01:31.070Z,100231.72
2022-10-08T01:04:02.809Z,100234.66
2022-10-08T01:06:33.079Z,100224.13
2022-10-08T01:09:08.610Z,100231.22
2022-10-08T01:11:48.324Z,100231.34
2022-10-08T01:14:26.404Z,100236.63
2022-10-08T01:17:02.722Z,100231.22
2022-10-08T01:19:48.954Z,100224.25
2022-10-08T01:22:35.980Z,100225.53
2022-10-08T01:25:35.811Z,100227.03
2022-10-08T01:28:12.928Z,100226.22
2022-10-08T01:30:46.653Z,100221.94
2022-10-08T01:33:19.828Z,100227.47
2022-10-08T01:35:54.051Z,100218.47
2022-10-08T01:38:25.858Z,100243.25
2022-10-08T01:40:59.097Z,100230.09
2022-10-08T01:43:32.269Z,100209.34
2022-10-08T01:46:04.617Z,100209.19
2022-10-08T01:48:38.021Z,100195.53
2022-10-08T01:51:10.547Z,100185.94
2022-10-08T01:53:41.794Z,100187.91
2022-10-08T01:56:13.707Z,100179.31
2022-10-08T01:58:47.535Z,100193.03
2022-10-08T02:01:21.600Z,100184.44
2022-10-08T02:04:03.394Z,100186.25
2022-10-08T02:06:37.224Z,100190.84
2022-10-08T02:09:07.835Z,100183.09
2022-10-08T02:11:35.929Z,100190.13
2022-10-08T02:14:06.647Z,100186.81
2022-10-08T02:16:37.000Z,100182.25
2022-10-08T02:19:11.724Z,100190.28
2022-10-08T02:21:42.002Z,100192.06
2022-10-08T02:24:16.018Z,100208.84
2022-10-08T02:26:48.238Z,100188.63
2022-10-08T02:29:21.696Z,100198.47
2022-10-08T02:31:52.054Z,100186.44
2022-10-08T02:34:26.421Z,100202.38
2022-10-08T02:36:59.037Z,100193.63
2022-10-08T02:39:29.984Z,100203.34
2022-10-08T02:42:03.153Z,100207.06
2022-10-08T02:44:39.688Z,100212.19
2022-10-08T02:47:11.430Z,100208.34
2022-10-08T02:49:44.547Z,100197.97
2022-10-08T02:52:14.642Z,100195.47
2022-10-08T02:54:46.135Z,100178.63
2022-10-08T02:57:18.707Z,100178.19
2022-10-08T02:59:48.501Z,100183.59
2022-10-08T03:02:21.284Z,100171.28
2022-10-08T03:04:54.207Z,100195.09
2022-10-08T03:07:26.210Z,100207.28
2022-10-08T03:09:56.794Z,100215.84
2022-10-08T03:12:25.915Z,100206.59
2022-10-08T03:14:55.163Z,100199.53
2022-10-08T03:17:30.534Z,100181.41
2022-10-08T03:19:59.064Z,100189.72
2022-10-08T03:22:28.799Z,100182.94
2022-10-08T03:24:57.013Z,100176.31
2022-10-08T03:27:25.304Z,100197.50
2022-10-08T03:29:57.060Z,100188.88
2022-10-08T03:32:26.918Z,100180.31
2022-10-08T03:34:55.268Z,100176.28
2022-10-08T03:37:23.225Z,100179.91
2022-10-08T03:39:51.068Z,100178.25
2022-10-08T03:42:18.964Z,100194.16
2022-10-08T03:44:49.135Z,100188.91
2022-10-08T03:47:17.184Z,100191.81
2022-10-08T03:49:46.478Z,100195.09
2022-10-08T03:52:14.328Z,100190.69
2022-10-08T03:54:42.195Z,100189.19
2022-10-08T03:57:10.040Z,100196.78
2022-10-08T03:59:37.913Z,100198.44
2022-10-08T04:02:05.834Z,100197.59
2022-10-08T04:04:33.700Z,100192.19
2022-10-08T04:07:02.901Z,100194.16
2022-10-08T04:09:30.801Z,100177.69
2022-10-08T04:11:58.645Z,100190.97
2022-10-08T04:14:26.501Z,100191.66
2022-10-08T04:16:55.308Z,100197.06
2022-10-08T04:19:23.200Z,100198.28
2022-10-08T04:21:51.051Z,100197.47
2022-10-08T04:24:20.287Z,100192.63
2022-10-08T04:26:48.154Z,100195.97
2022-10-08T04:29:16.031Z,100198.16
2022-10-08T04:31:44.931Z,100196.50
2022-10-08T04:34:13.159Z,100189.03
2022-10-08T04:36:41.099Z,100185.16
2022-10-08T04:39:09.139Z,100184.59
2022-10-08T04:41:38.369Z,100179.88
2022-10-08T04:44:06.202Z,100186.25
2022-10-08T04:46:34.128Z,100183.06
2022-10-08T04:49:02.242Z,100186.66
2022-10-08T04:51:33.181Z,100216.50
2022-10-08T04:54:01.769Z,100207.91
2022-10-08T04:56:31.434Z,100216.06
2022-10-08T04:59:01.048Z,100219.22
2022-10-08T05:01:30.536Z,100207.88
2022-10-08T05:04:00.069Z,100212.59
2022-10-08T05:06:33.545Z,100209.97
2022-10-08T05:09:04.168Z,100209.25
2022-10-08T05:11:33.602Z,100211.88
2022-10-08T05:14:03.127Z,100213.84
2022-10-08T05:16:31.054Z,100215.75
2022-10-08T05:19:00.096Z,100214.25
2022-10-08T05:21:30.304Z,100219.63
2022-10-08T05:24:00.307Z,100224.88
2022-10-08T05:26:56.250Z,100220.56
2022-10-08T05:29:20.025Z,100219.75
2022-10-08T05:31:47.913Z,100220.56
2022-10-08T05:34:16.445Z,100224.88
2022-10-08T05:36:44.601Z,100225.13
2022-10-08T05:39:12.583Z,100222.50
2022-10-08T05:41:40.463Z,100228.69
2022-10-08T05:44:12.585Z,100240.03
2022-10-08T05:46:41.895Z,100237.53
2022-10-08T05:49:17.752Z,100242.78
2022-10-08T05:51:45.570Z,100239.47
2022-10-08T05:54:13.455Z,100247.34
2022-10-08T05:56:44.443Z,100243.06
2022-10-08T05:59:18.071Z,100240.69
2022-10-08T06:01:51.058Z,100233.22
2022-10-08T06:04:19.898Z,100235.25
2022-10-08T06:06:48.189Z,100222.28
2022-10-08T06:09:18.197Z,100237.34
2022-10-08T06:11:46.499Z,100260.50
2022-10-08T06:14:17.159Z,100254.28
2022-10-08T06:16:45.134Z,100254.66
2022-10-08T06:19:14.756Z,100260.63
2022-10-08T06:21:42.669Z,100266.72
2022-10-08T06:24:15.396Z,100265.16
2022-10-08T06:26:44.662Z,100257.03
2022-10-08T06:29:15.299Z,100268.50
2022-10-08T06:31:43.486Z,100273.16
2022-10-08T06:34:11.683Z,100278.56
2022-10-08T06:36:41.175Z,100277.13
2022-10-08T06:39:12.296Z,100272.13
2022-10-08T06:41:40.129Z,100279.31
2022-10-08T06:44:09.439Z,100270.84
2022-10-08T06:46:37.382Z,100279.81
2022-10-08T06:49:06.632Z,100286.84
2022-10-08T06:51:34.901Z,100284.22
2022-10-08T06:54:07.906Z,100281.59
2022-10-08T06:56:37.579Z,100284.34
2022-10-08T06:59:06.547Z,100286.25
2022-10-08T07:01:35.291Z,100283.63
2022-10-08T07:04:04.350Z,100282.13
2022-10-08T07:06:32.486Z,100297.13
2022-10-08T07:09:02.593Z,100291.22
2022-10-08T07:11:33.568Z,100298.94
2022-10-08T07:14:01.622Z,100298.81
2022-10-08T07:16:29.687Z,100304.88
2022-10-08T07:18:59.074Z,100312.06
2022-10-08T07:21:28.522Z,100307.75
2022-10-08T07:23:56.979Z,100320.84
2022-10-08T07:26:26.636Z,100317.41
2022-10-08T07:28:58.219Z,100323.59
2022-10-08T07:31:31.479Z,100329.69
2022-10-08T07:33:59.890Z,100326.34
2022-10-08T07:36:29.698Z,100327.31
2022-10-08T07:38:58.999Z,100323.16
2022-10-08T07:41:27.464Z,100321.59
2022-10-08T07:43:59.645Z,100322.31
2022-10-08T07:46:28.862Z,100313.25
2022-10-08T07:48:59.232Z,100307.31
2022-10-08T07:51:28.515Z,100312.06
2022-10-08T07:54:02.293Z,100313.44
2022-10-08T07:56:31.786Z,100306.28
2022-10-08T07:59:01.302Z,100317.34
2022-10-08T08:01:30.459Z,100319.59
2022-10-08T08:04:02.073Z,100321.94
2022-10-08T08:06:30.711Z,100316.09
2022-10-08T08:09:00.316Z,100320.13
2022-10-08T08:11:30.854Z,100323.31
2022-10-08T08:13:58.464Z,100317.09
2022-10-08T08:16:29.769Z,100325.28
2022-10-08T08:18:59.976Z,100328.38
2022-10-08T08:21:31.967Z,100338.91
2022-10-08T08:24:04.352Z,100325.38
2022-10-08T08:26:34.080Z,100316.19
2022-10-08T08:29:05.704Z,100316.88
2022-10-08T08:31:39.287Z,100310.09
2022-10-08T08:34:11.698Z,100318.09
2022-10-08T08:36:41.678Z,100316.84
2022-10-08T08:39:14.644Z,100317.66
2022-10-08T08:42:04.051Z,100330.78
2022-10-08T08:44:35.668Z,100330.63
2022-10-08T08:47:09.413Z,100325.38
2022-10-08T08:49:43.701Z,100328.47
2022-10-08T08:52:14.952Z,100328.78
2022-10-08T08:54:43.088Z,100334.72
2022-10-08T08:57:25.065Z,100336.09
2022-10-08T08:59:57.944Z,100340.16
2022-10-08T09:02:31.932Z,100340.97
2022-10-08T09:05:03.582Z,100341.09
2022-10-08T09:07:43.581Z,100343.72
2022-10-08T09:10:18.580Z,100337.66
2022-10-08T09:12:47.471Z,100334.50
2022-10-08T09:15:19.542Z,100340.44
2022-10-08T09:17:52.133Z,100333.78
2022-10-08T09:20:22.560Z,100339.75
2022-10-08T09:22:50.971Z,100336.56
2022-10-08T09:25:22.760Z,100336.88
2022-10-08T09:27:52.336Z,100352.34
2022-10-08T09:30:32.791Z,100353.16
2022-10-08T09:33:05.593Z,100352.63
2022-10-08T09:35:35.427Z,100357.75
2022-10-08T09:38:05.926Z,100355.25
2022-10-08T09:40:34.214Z,100358.19
2022-10-08T09:43:13.952Z,100370.34
2022-10-08T09:45:44.675Z,100361.41
2022-10-08T09:48:25.735Z,100353.13
2022-10-08T09:50:59.950Z,100363.50
2022-10-08T09:53:30.881Z,100353.41
2022-10-08T09:56:01.879Z,100361.84
2022-10-08T09:58:33.272Z,100358.13
2022-10-08T10:01:04.969Z,100359.22
2022-10-08T10:03:36.466Z,100359.38
2022-10-08T10:06:04.849Z,100370.41
2022-10-08T10:08:46.657Z,100370.81
2022-10-08T10:11:20.774Z,100370.00
2022-10-08T10:13:50.932Z,100370.13
2022-10-08T10:16:24.461Z,100356.56
2022-10-08T10:19:00.612Z,100364.03
2022-10-08T10:21:37.444Z,100357.94
2022-10-08T10:24:24.609Z,100351.03
2022-10-08T10:26:57.094Z,100356.03
2022-10-08T10:29:30.547Z,100354.72
2022-10-08T10:32:04.160Z,100361.94
2022-10-08T10:34:38.541Z,100353.09
2022-10-08T10:37:13.246Z,100351.44
2022-10-08T10:39:49.580Z,100350.72
2022-10-08T10:42:24.186Z,100354.31
2022-10-08T10:44:54.674Z,100363.59
2022-10-08T10:47:26.117Z,100362.84
2022-10-08T10:49:59.045Z,100367.44
2022-10-08T10:52:46.632Z,100365.25
2022-10-08T10:55:22.820Z,100361.09
2022-10-08T10:58:10.000Z,100359.31
2022-10-08T11:00:48.816Z,100356.31
2022-10-08T11:03:23.677Z,100360.19
2022-10-08T11:05:59.891Z,100356.75
2022-10-08T11:08:39.619Z,100367.66
2022-10-08T11:11:21.881Z,100355.50
2022-10-08T11:14:13.088Z,100360.22
2022-10-08T11:16:54.370Z,100366.59
2022-10-08T11:19:37.188Z,100358.56
2022-10-08T11:22:14.140Z,100356.06
2022-10-08T11:25:04.870Z,100359.28
2022-10-08T11:27:43.626Z,100371.56
2022-10-08T11:30:15.416Z,100368.28
2022-10-08T11:32:46.680Z,100357.22
2022-10-08T11:35:29.116Z,100363.84
2022-10-08T11:38:09.716Z,100348.66
2022-10-08T11:40:42.980Z,100348.69
2022-10-08T11:43:17.733Z,100349.53
2022-10-08T11:45:46.620Z,100359.91
2022-10-08T11:48:34.298Z,100363.78
2022-10-08T11:51:34.351Z,100352.28
2022-10-08T11:54:17.605Z,100357.28
2022-10-08T11:56:48.007Z,100359.91
2022-10-08T11:59:32.356Z,100346.50
2022-10-08T12:02:03.046Z,100355.03
2022-10-08T12:04:34.363Z,100344.53
2022-10-08T12:07:22.185Z,100339.28
2022-10-08T12:10:31.922Z,100352.41
2022-10-08T12:13:03.177Z,100355.19
2022-10-08T12:15:55.903Z,100350.94
2022-10-08T12:18:47.524Z,100357.84
2022-10-08T12:21:48.092Z,100364.75
2022-10-08T12:24:50.262Z,100364.22
2022-10-08T12:27:43.258Z,100368.34
2022-10-08T12:30:13.909Z,100362.69
2022-10-08T12:32:56.621Z,100362.81
2022-10-08T12:35:29.012Z,100361.44
2022-10-08T12:38:23.230Z,100372.66
2022-10-08T12:41:00.396Z,100375.16
2022-10-08T12:43:41.395Z,100383.59
2022-10-08T12:46:22.417Z,100385.53
2022-10-08T12:48:52.963Z,100388.84
2022-10-08T12:51:24.725Z,100385.66
2022-10-08T12:53:52.922Z,100387.75
2022-10-08T12:56:26.228Z,100382.34
2022-10-08T12:58:57.213Z,100396.34
2022-10-08T13:01:26.523Z,100386.50
2022-10-08T13:04:20.618Z,100389.81
2022-10-08T13:06:53.746Z,100392.31
2022-10-08T13:09:27.287Z,100389.41
2022-10-08T13:12:00.676Z,100390.78
2022-10-08T13:14:34.099Z,100403.53
2022-10-08T13:17:02.725Z,100397.97
2022-10-08T13:19:33.279Z,100404.91
2022-10-08T13:22:01.937Z,100403.25
2022-10-08T13:24:41.164Z,100406.31
2022-10-08T13:27:26.767Z,100409.75
2022-10-08T13:29:56.527Z,100405.88
2022-10-08T13:32:30.165Z,100393.94
2022-10-08T13:35:00.156Z,100404.34
2022-10-08T13:37:32.423Z,100411.84
2022-10-08T13:40:02.199Z,100412.41
2022-10-08T13:42:32.548Z,100406.44
2022-10-08T13:45:03.312Z,100406.44
2022-10-08T13:47:31.164Z,100420.16
2022-10-08T13:50:02.240Z,100415.56
2022-10-08T13:52:32.006Z,100414.63
2022-10-08T13:55:02.332Z,100417.25
2022-10-08T13:57:30.562Z,100420.16
2022-10-08T13:59:58.599Z,100421.94
2022-10-08T14:02:27.881Z,100413.19
2022-10-08T14:04:58.059Z,100408.53
2022-10-08T14:07:29.702Z,100418.06
2022-10-08T14:10:00.785Z,100416.81
2022-10-08T14:12:32.549Z,100418.47
2022-10-08T14:15:00.964Z,100428.81
2022-10-08T14:17:30.168Z,100437.13
2022-10-08T14:20:00.351Z,100432.97
2022-10-08T14:22:30.303Z,100435.88
2022-10-08T14:24:58.140Z,100436.13
2022-10-08T14:27:25.966Z,100444.03
2022-10-08T14:29:53.896Z,100444.16
2022-10-08T14:32:21.709Z,100453.03
2022-10-08T14:34:50.980Z,100450.75
2022-10-08T14:37:18.845Z,100452.81
2022-10-08T14:39:46.843Z,100466.34
2022-10-08T14:42:14.792Z,100470.91
2022-10-08T14:44:42.655Z,100457.63
2022-10-08T14:47:10.491Z,100464.56
2022-10-08T14:49:38.986Z,100467.88
2022-10-08T14:52:08.228Z,100466.34
2022-10-08T14:54:36.068Z,100476.03
2022-10-08T14:57:04.447Z,100472.84
2022-10-08T14:59:35.206Z,100481.00
2022-10-08T15:02:07.387Z,100476.13
2022-10-08T15:04:37.654Z,100478.31
2022-10-08T15:07:05.728Z,100478.97
2022-10-08T15:09:37.265Z,100472.88
2022-10-08T15:12:05.276Z,100478.00
2022-10-08T15:14:37.187Z,100473.25
2022-10-08T15:17:06.137Z,100487.50
2022-10-08T15:19:33.997Z,100492.34
2022-10-08T15:22:01.888Z,100482.59
2022-10-08T15:24:29.716Z,100492.38
2022-10-08T15:26:58.979Z,100485.88
2022-10-08T15:29:26.991Z,100491.50
2022-10-08T15:31:54.852Z,100499.50
2022-10-08T15:34:23.043Z,100497.41
2022-10-08T15:36:50.944Z,100508.97
2022-10-08T15:39:20.250Z,100504.47
2022-10-08T15:41:50.039Z,100515.25
2022-10-08T15:44:21.000Z,100518.66
2022-10-08T15:46:50.154Z,100525.66
2022-10-08T15:49:18.257Z,100527.16
2022-10-08T15:51:46.161Z,100530.94
2022-10-08T15:54:14.017Z,100538.50
2022-10-08T15:56:41.848Z,100540.53
2022-10-08T15:59:09.672Z,100541.03
2022-10-08T16:01:38.967Z,100541.66
2022-10-08T16:04:07.976Z,100543.06
2022-10-08T16:06:37.236Z,100550.56
2022-10-08T16:09:06.004Z,100562.16
2022-10-08T16:11:36.092Z,100568.00
2022-10-08T16:14:06.537Z,100576.09
2022-10-08T16:16:34.261Z,100572.78
2022-10-08T16:19:08.490Z,100571.09
2022-10-08T16:21:37.265Z,100586.38
2022-10-08T16:24:06.552Z,100589.22
2022-10-08T16:26:35.625Z,100591.72
2022-10-08T16:29:06.895Z,100593.41
2022-10-08T16:31:36.634Z,100597.06
2022-10-08T16:34:07.761Z,100590.19
2022-10-08T16:36:37.475Z,100599.81
2022-10-08T16:39:06.593Z,100606.25
2022-10-08T16:41:36.508Z,100605.53
2022-10-08T16:44:12.075Z,100608.13
2022-10-08T16:46:41.886Z,100618.03
2022-10-08T16:49:21.318Z,100613.03
2022-10-08T16:51:53.079Z,100618.38
2022-10-08T16:54:21.066Z,100623.13
2022-10-08T16:56:48.955Z,100624.31
2022-10-08T16:59:19.392Z,100630.59
2022-10-08T17:01:47.853Z,100631.31
2022-10-08T17:04:17.788Z,100632.03
2022-10-08T17:06:46.082Z,100636.31
2022-10-08T17:09:14.523Z,100634.41
2022-10-08T17:11:42.897Z,100632.75
2022-10-08T17:14:11.805Z,100640.72
2022-10-08T17:16:40.775Z,100645.00
2022-10-08T17:19:08.636Z,100649.53
2022-10-08T17:21:38.407Z,100643.06
2022-10-08T17:24:06.493Z,100649.28
2022-10-08T17:26:34.775Z,100655.47
2022-10-08T17:29:05.221Z,100654.84
2022-10-08T17:31:33.263Z,100664.44
2022-10-08T17:34:01.873Z,100662.41
2022-10-08T17:36:31.953Z,100668.72
2022-10-08T17:39:03.212Z,100670.84
2022-10-08T17:41:33.747Z,100673.78
2022-10-08T17:44:04.086Z,100685.44
2022-10-08T17:46:34.666Z,100691.50
2022-10-08T17:49:03.210Z,100685.53
2022-10-08T17:51:31.705Z,100691.22
2022-10-08T17:54:02.699Z,100693.72
2022-10-08T17:56:31.234Z,100693.63
2022-10-08T17:58:59.772Z,100699.81
2022-10-08T18:01:29.830Z,100706.94
2022-10-08T18:03:59.355Z,100706.06
2022-10-08T18:06:28.615Z,100709.75
2022-10-08T18:08:57.246Z,100709.06
2022-10-08T18:11:27.903Z,100719.84
2022-10-08T18:13:55.827Z,100719.13
2022-10-08T18:16:25.298Z,100722.78
2022-10-08T18:18:53.789Z,100721.31
2022-10-08T18:21:22.069Z,100723.13
2022-10-08T18:23:50.585Z,100729.56
2022-10-08T18:26:20.280Z,100732.06
2022-10-08T18:28:51.915Z,100735.56
2022-10-08T18:31:21.006Z,100745.38
2022-10-08T18:33:50.805Z,100753.44
2022-10-08T18:36:20.524Z,100747.72
2022-10-08T18:38:50.145Z,100749.56
2022-10-08T18:41:20.238Z,100759.41
2022-10-08T18:43:50.343Z,100769.47
2022-10-08T18:46:20.181Z,100764.66
2022-10-08T18:48:48.195Z,100773.56
2022-10-08T18:51:18.098Z,100780.47
2022-10-08T18:53:46.369Z,100776.19
2022-10-08T18:56:17.100Z,100790.38
2022-10-08T18:58:45.751Z,100787.06
2022-10-08T19:01:19.891Z,100793.09
2022-10-08T19:03:48.844Z,100786.84
2022-10-08T19:06:18.056Z,100795.31
2022-10-08T19:08:46.903Z,100799.91
2022-10-08T19:11:17.295Z,100805.13
2022-10-08T19:13:45.360Z,100809.22
2022-10-08T19:16:15.258Z,100811.72
2022-10-08T19:18:52.297Z,100816.00
2022-10-08T19:21:20.848Z,100822.38
2022-10-08T19:23:48.843Z,100818.72
2022-10-08T19:26:17.187Z,100823.31
2022-10-08T19:28:47.702Z,100823.72
2022-10-08T19:31:17.525Z,100834.16
2022-10-08T19:33:49.845Z,100838.88
2022-10-08T19:36:18.637Z,100839.69
2022-10-08T19:38:52.544Z,100854.00
2022-10-08T19:41:20.804Z,100854.00
2022-10-08T19:43:49.139Z,100859.53
2022-10-08T19:46:17.470Z,100860.56
2022-10-08T19:48:49.102Z,100863.59
2022-10-08T19:51:17.817Z,100863.78
2022-10-08T19:53:46.035Z,100871.06
2022-10-08T19:56:15.168Z,100869.69
2022-10-08T19:58:48.538Z,100870.75
2022-10-08T20:01:18.749Z,100881.47
2022-10-08T20:03:48.072Z,100881.69
2022-10-08T20:06:23.228Z,100883.63
2022-10-08T20:08:53.730Z,100897.81
2022-10-08T20:11:22.725Z,100885.16
2022-10-08T20:13:52.299Z,100896.84
2022-10-08T20:16:23.277Z,100896.38
2022-10-08T20:18:54.524Z,100897.59
2022-10-08T20:21:23.594Z,100907.28
2022-10-08T20:23:51.599Z,100904.00
2022-10-08T20:26:21.575Z,100905.81
2022-10-08T20:28:51.649Z,100911.03
2022-10-08T20:31:21.729Z,100918.09
2022-10-08T20:33:55.873Z,100915.59
2022-10-08T20:36:25.442Z,100923.59
2022-10-08T20:38:53.583Z,100926.50
2022-10-08T20:41:23.598Z,100935.34
2022-10-08T20:43:56.764Z,100931.34
2022-10-08T20:46:24.893Z,100937.75
2022-10-08T20:48:52.803Z,100940.56
2022-10-08T20:51:22.745Z,100941.84
2022-10-08T20:53:53.811Z,100939.50
2022-10-08T20:56:22.675Z,100943.84
2022-10-08T20:58:51.197Z,100947.59
2022-10-08T21:01:22.000Z,100941.78
2022-10-08T21:03:50.325Z,100952.13
2022-10-08T21:06:20.176Z,100952.41
2022-10-08T21:08:50.074Z,100963.19
2022-10-08T21:11:21.151Z,100957.50
2022-10-08T21:13:49.621Z,100964.47
2022-10-08T21:16:19.799Z,100966.44
2022-10-08T21:18:50.535Z,100969.31
2022-10-08T21:21:19.013Z,100967.72
2022-10-08T21:23:49.099Z,100973.09
2022-10-08T21:26:20.147Z,100968.06
2022-10-08T21:28:49.705Z,100976.91
2022-10-08T21:31:19.585Z,100981.53
2022-10-08T21:33:49.742Z,100978.34
2022-10-08T21:36:19.071Z,100984.09
2022-10-08T21:38:47.787Z,100985.75
2022-10-08T21:41:19.948Z,100992.72
2022-10-08T21:43:50.137Z,100992.16
2022-10-08T21:46:20.665Z,101001.25
2022-10-08T21:48:48.829Z,101000.41
2022-10-08T21:51:20.205Z,101001.44
2022-10-08T21:53:51.080Z,101006.81
2022-10-08T21:56:22.397Z,101005.44
2022-10-08T21:58:51.809Z,101007.56
2022-10-08T22:01:22.213Z,101012.41
2022-10-08T22:03:50.330Z,101015.75
2022-10-08T22:06:18.188Z,101020.88
2022-10-08T22:08:46.028Z,101009.44
2022-10-08T22:11:13.966Z,101017.25
2022-10-08T22:13:43.686Z,101019.94
2022-10-08T22:16:14.021Z,101019.53
2022-10-08T22:18:41.960Z,101035.47
2022-10-08T22:21:12.736Z,101036.91
2022-10-08T22:23:40.725Z,101043.19
2022-10-08T22:26:10.402Z,101037.38
2022-10-08T22:28:39.251Z,101042.66
2022-10-08T22:31:10.394Z,101042.09
2022-10-08T22:33:38.366Z,101045.81
2022-10-08T22:36:08.671Z,101042.31
2022-10-08T22:38:37.046Z,101050.53
2022-10-08T22:41:06.739Z,101058.25
2022-10-08T22:43:34.813Z,101062.00
2022-10-08T22:46:04.067Z,101066.44
2022-10-08T22:48:33.688Z,101070.81
2022-10-08T22:51:06.618Z,101069.88
2022-10-08T22:53:34.894Z,101075.06
2022-10-08T22:56:04.920Z,101066.59
2022-10-08T22:58:34.151Z,101075.31
2022-10-08T23:01:03.584Z,101075.31
2022-10-08T23:03:31.807Z,101083.13
2022-10-08T23:06:06.763Z,101083.19
2022-10-08T23:08:35.099Z,101089.25
2022-10-08T23:11:03.984Z,101092.63
2022-10-08T23:13:32.764Z,101098.63
2022-10-08T23:16:02.783Z,101095.53
2022-10-08T23:18:32.119Z,101107.75
2022-10-08T23:21:02.476Z,101109.75
2022-10-08T23:23:32.304Z,101113.63
2022-10-08T23:26:02.005Z,101118.03
2022-10-08T23:28:31.022Z,101124.03
2022-10-08T23:31:05.207Z,101127.66
2022-10-08T23:33:33.067Z,101126.78
2022-10-08T23:36:00.959Z,101136.59
2022-10-08T23:38:28.804Z,101133.38
2022-10-08T23:41:01.521Z,101138.78
2022-10-08T23:43:29.832Z,101144.75
2022-10-08T23:45:57.886Z,101144.06
2022-10-08T23:48:25.787Z,101147.81
2022-10-08T23:50:54.064Z,101151.22
2022-10-08T23:53:22.763Z,101159.16
2022-10-08T23:55:50.815Z,101159.22
2022-10-08T23:58:20.648Z,101157.78
